createdAt,value
2019-01-06T00:00:49.764Z,1.20
2019-01-06T00:03:15.741Z,0.97
2019-01-06T00:05:41.727Z,1.37
2019-01-06T00:08:07.702Z,1.30
2019-01-06T00:10:33.694Z,1.40
2019-01-06T00:12:59.657Z,1.07
2019-01-06T00:15:26.389Z,1.00
2019-01-06T00:17:52.354Z,1.20
2019-01-06T00:20:18.353Z,1.10
2019-01-06T00:22:44.326Z,1.30
2019-01-06T00:25:10.302Z,1.20
2019-01-06T00:27:36.256Z,0.90
2019-01-06T00:30:03.174Z,1.63
2019-01-06T00:32:28.264Z,0.80
2019-01-06T00:34:55.008Z,0.80
2019-01-06T00:37:20.973Z,1.50
2019-01-06T00:39:46.952Z,1.40
2019-01-06T00:42:12.911Z,1.77
2019-01-06T00:44:38.901Z,1.73
2019-01-06T00:47:04.896Z,1.20
2019-01-06T00:49:30.847Z,1.83
2019-01-06T00:51:56.832Z,1.80
2019-01-06T00:54:22.800Z,1.63
2019-01-06T00:56:48.825Z,1.37
2019-01-06T00:59:14.829Z,1.27
2019-01-06T01:01:41.767Z,1.43
2019-01-06T01:04:07.788Z,1.20
2019-01-06T01:06:34.504Z,1.60
2019-01-06T01:09:00.466Z,1.60
2019-01-06T01:11:27.164Z,1.77
2019-01-06T01:13:53.162Z,1.27
2019-01-06T01:16:19.111Z,1.53
2019-01-06T01:18:45.187Z,1.80
2019-01-06T01:21:11.161Z,1.37
2019-01-06T01:23:37.190Z,1.90
2019-01-06T01:26:03.146Z,1.67
2019-01-06T01:28:29.850Z,1.83
2019-01-06T01:30:55.810Z,1.30
2019-01-06T01:33:21.798Z,1.17
2019-01-06T01:35:47.747Z,1.37
2019-01-06T01:38:14.484Z,1.30
2019-01-06T01:40:41.175Z,1.37
2019-01-06T01:43:07.448Z,1.10
2019-01-06T01:45:33.201Z,1.20
2019-01-06T01:47:59.179Z,1.00
2019-01-06T01:50:25.158Z,1.53
2019-01-06T01:52:51.152Z,0.73
2019-01-06T01:55:17.148Z,1.00
2019-01-06T01:57:43.861Z,1.30
2019-01-06T02:00:09.844Z,1.30
2019-01-06T02:02:36.193Z,1.90
2019-01-06T02:05:02.203Z,1.37
2019-01-06T02:07:28.159Z,1.30
2019-01-06T02:09:54.110Z,1.03
2019-01-06T02:12:20.086Z,1.10
2019-01-06T02:14:46.211Z,1.33
2019-01-06T02:17:12.189Z,1.50
2019-01-06T02:19:38.905Z,1.40
2019-01-06T02:22:04.925Z,1.70
2019-01-06T02:24:30.914Z,1.10
2019-01-06T02:26:57.627Z,1.20
2019-01-06T02:29:24.328Z,0.93
2019-01-06T02:31:50.301Z,1.50
2019-01-06T02:34:16.270Z,1.07
2019-01-06T02:36:42.277Z,1.00
2019-01-06T02:39:08.266Z,1.00
2019-01-06T02:41:34.256Z,1.47
2019-01-06T02:44:00.220Z,0.80
2019-01-06T02:46:26.178Z,1.20
2019-01-06T02:48:52.152Z,1.20
2019-01-06T02:51:18.135Z,1.60
2019-01-06T02:53:44.125Z,1.10
2019-01-06T02:56:10.891Z,1.10
2019-01-06T02:58:36.872Z,1.10
2019-01-06T03:01:02.826Z,1.20
2019-01-06T03:03:29.545Z,1.47
2019-01-06T03:05:55.517Z,0.90
2019-01-06T03:08:21.491Z,1.50
2019-01-06T03:10:47.433Z,1.20
2019-01-06T03:13:13.418Z,1.20
2019-01-06T03:15:40.103Z,1.30
2019-01-06T03:18:06.047Z,1.43
2019-01-06T03:20:32.021Z,1.40
2019-01-06T03:22:57.972Z,0.90
2019-01-06T03:25:23.957Z,1.27
2019-01-06T03:27:49.885Z,0.63
2019-01-06T03:30:15.861Z,0.60
2019-01-06T03:32:41.817Z,0.80
2019-01-06T03:35:07.823Z,0.80
2019-01-06T03:37:33.798Z,1.00
2019-01-06T03:39:59.790Z,0.67
2019-01-06T03:42:25.748Z,0.80
2019-01-06T03:44:51.707Z,0.87
2019-01-06T03:47:18.424Z,0.80
2019-01-06T03:49:44.393Z,0.80
2019-01-06T03:52:10.384Z,0.60
2019-01-06T03:54:36.329Z,0.97
2019-01-06T03:57:03.046Z,0.87
2019-01-06T03:59:28.998Z,0.73
2019-01-06T04:01:54.980Z,0.53
2019-01-06T04:04:20.918Z,0.60
2019-01-06T04:06:47.648Z,0.80
2019-01-06T04:09:13.591Z,1.10
2019-01-06T04:11:39.588Z,0.97
2019-01-06T04:14:05.552Z,0.87
2019-01-06T04:16:31.541Z,0.77
2019-01-06T04:18:58.295Z,0.80
2019-01-06T04:21:24.239Z,0.90
2019-01-06T04:23:50.952Z,1.03
2019-01-06T04:26:17.640Z,0.80
2019-01-06T04:28:43.639Z,0.80
2019-01-06T04:31:10.333Z,1.10
2019-01-06T04:33:36.353Z,1.13
2019-01-06T04:36:03.066Z,1.03
2019-01-06T04:38:29.084Z,1.20
2019-01-06T04:40:55.033Z,1.70
2019-01-06T04:43:21.002Z,1.00
2019-01-06T04:45:47.752Z,1.77
2019-01-06T04:48:13.716Z,1.77
2019-01-06T04:50:39.688Z,1.27
2019-01-06T04:53:06.381Z,1.20
2019-01-06T04:55:32.353Z,0.70
2019-01-06T04:57:59.054Z,1.13
2019-01-06T05:00:25.048Z,1.00
2019-01-06T05:02:51.024Z,1.37
2019-01-06T05:05:17.754Z,1.30
2019-01-06T05:07:43.704Z,1.10
2019-01-06T05:10:09.696Z,1.33
2019-01-06T05:12:35.662Z,1.60
2019-01-06T05:15:01.620Z,1.10
2019-01-06T05:17:27.589Z,1.60
2019-01-06T05:19:54.280Z,1.47
2019-01-06T05:22:20.267Z,1.43
2019-01-06T05:24:46.221Z,1.23
2019-01-06T05:27:12.200Z,1.77
2019-01-06T05:29:38.160Z,1.30
2019-01-06T05:32:04.126Z,1.33
2019-01-06T05:34:30.826Z,1.37
2019-01-06T05:36:56.834Z,1.90
2019-01-06T05:39:22.799Z,0.80
2019-01-06T05:41:48.760Z,1.30
2019-01-06T05:44:14.746Z,1.10
2019-01-06T05:46:40.710Z,1.00
2019-01-06T05:49:06.707Z,1.30
2019-01-06T05:51:33.414Z,0.87
2019-01-06T05:53:59.383Z,1.50
2019-01-06T05:56:25.406Z,1.27
2019-01-06T05:58:51.399Z,1.00
2019-01-06T06:01:17.365Z,1.10
2019-01-06T06:03:43.360Z,1.37
2019-01-06T06:06:10.060Z,1.30
2019-01-06T06:08:36.044Z,1.53
2019-01-06T06:11:01.998Z,1.30
2019-01-06T06:13:27.981Z,1.10
2019-01-06T06:15:53.943Z,1.40
2019-01-06T06:18:19.920Z,1.13
2019-01-06T06:20:46.613Z,1.10
2019-01-06T06:23:12.579Z,0.97
2019-01-06T06:25:39.299Z,1.50
2019-01-06T06:28:05.250Z,1.20
2019-01-06T06:30:32.563Z,1.20
2019-01-06T06:32:57.252Z,1.10
2019-01-06T06:35:23.240Z,1.27
2019-01-06T06:37:49.190Z,1.50
2019-01-06T06:40:15.179Z,1.53
2019-01-06T06:42:41.145Z,1.30
2019-01-06T06:45:07.120Z,1.23
2019-01-06T06:47:33.114Z,1.23
2019-01-06T06:49:59.112Z,1.10
2019-01-06T06:52:25.075Z,0.70
2019-01-06T06:54:51.753Z,1.87
2019-01-06T06:57:17.747Z,1.57
2019-01-06T06:59:43.686Z,1.27
2019-01-06T07:02:09.655Z,1.17
2019-01-06T07:04:35.638Z,1.70
2019-01-06T07:07:01.643Z,1.83
2019-01-06T07:09:27.580Z,2.83
2019-01-06T07:11:53.562Z,1.93
2019-01-06T07:14:20.256Z,1.60
2019-01-06T07:16:46.285Z,2.07
2019-01-06T07:19:12.296Z,2.40
2019-01-06T07:21:38.263Z,2.20
2019-01-06T07:24:04.241Z,1.90
2019-01-06T07:26:30.210Z,1.70
2019-01-06T07:28:56.223Z,2.07
2019-01-06T07:31:22.158Z,2.17
2019-01-06T07:33:48.127Z,1.70
2019-01-06T07:36:14.106Z,1.80
2019-01-06T07:38:40.825Z,1.93
2019-01-06T07:41:06.777Z,1.87
2019-01-06T07:43:33.522Z,2.37
2019-01-06T07:46:00.210Z,2.07
2019-01-06T07:48:26.162Z,2.33
2019-01-06T07:50:52.142Z,2.00
2019-01-06T07:53:18.101Z,2.03
2019-01-06T07:55:44.078Z,2.07
2019-01-06T07:58:10.048Z,2.57
2019-01-06T08:00:36.782Z,1.73
2019-01-06T08:03:02.743Z,2.30
2019-01-06T08:05:28.716Z,1.83
2019-01-06T08:07:55.650Z,2.10
2019-01-06T08:10:21.491Z,1.80
2019-01-06T08:12:47.466Z,1.90
2019-01-06T08:15:13.467Z,2.10
2019-01-06T08:17:40.180Z,1.90
2019-01-06T08:20:06.145Z,2.00
2019-01-06T08:22:32.136Z,1.93
2019-01-06T08:24:58.072Z,1.90
2019-01-06T08:27:25.046Z,1.90
2019-01-06T08:29:51.010Z,1.97
2019-01-06T08:32:16.987Z,1.70
2019-01-06T08:34:42.936Z,1.20
2019-01-06T08:37:08.945Z,1.80
2019-01-06T08:39:35.651Z,2.07
2019-01-06T08:42:01.635Z,1.83
2019-01-06T08:44:27.576Z,1.40
2019-01-06T08:46:54.283Z,1.77
2019-01-06T08:49:20.257Z,1.70
2019-01-06T08:51:46.228Z,1.77
2019-01-06T08:54:12.200Z,1.63
2019-01-06T08:56:38.885Z,1.77
2019-01-06T08:59:04.883Z,1.80
2019-01-06T09:01:30.858Z,2.40
2019-01-06T09:03:56.844Z,2.73
2019-01-06T09:06:22.788Z,2.97
2019-01-06T09:08:49.068Z,3.13
2019-01-06T09:11:15.027Z,2.87
2019-01-06T09:13:40.980Z,3.43
2019-01-06T09:16:14.689Z,3.17
2019-01-06T09:18:40.624Z,3.57
2019-01-06T09:21:06.606Z,3.83
2019-01-06T09:23:32.558Z,3.50
2019-01-06T09:25:58.551Z,2.80
2019-01-06T09:28:24.505Z,3.03
2019-01-06T09:30:51.238Z,2.07
2019-01-06T09:33:17.178Z,2.07
2019-01-06T09:35:43.891Z,1.87
2019-01-06T09:38:09.849Z,1.63
2019-01-06T09:40:36.892Z,1.90
2019-01-06T09:43:03.588Z,1.70
2019-01-06T09:45:30.989Z,1.40
2019-01-06T09:47:55.579Z,1.37
2019-01-06T09:50:22.273Z,1.57
2019-01-06T09:52:48.292Z,1.10
2019-01-06T09:55:14.263Z,1.50
2019-01-06T09:57:40.993Z,2.07
2019-01-06T10:00:07.679Z,2.80
2019-01-06T10:02:33.672Z,2.50
2019-01-06T10:05:00.367Z,2.13
2019-01-06T10:07:26.405Z,2.80
2019-01-06T10:09:53.113Z,3.00
2019-01-06T10:12:19.088Z,2.17
2019-01-06T10:14:45.781Z,2.20
2019-01-06T10:17:11.803Z,2.40
2019-01-06T10:19:37.761Z,2.20
2019-01-06T10:22:04.476Z,2.50
2019-01-06T10:24:30.473Z,1.90
2019-01-06T10:26:56.429Z,2.40
2019-01-06T10:29:23.149Z,2.43
2019-01-06T10:31:49.107Z,2.50
2019-01-06T10:34:15.842Z,1.97
2019-01-06T10:36:41.809Z,2.43
2019-01-06T10:39:07.805Z,2.27
2019-01-06T10:41:34.515Z,2.13
2019-01-06T10:44:00.512Z,2.77
2019-01-06T10:46:26.488Z,2.43
2019-01-06T10:48:53.394Z,2.80
2019-01-06T10:51:19.531Z,2.43
2019-01-06T10:53:46.303Z,2.30
2019-01-06T10:56:12.369Z,2.43
2019-01-06T10:58:38.312Z,2.30
2019-01-06T11:01:04.303Z,1.90
2019-01-06T11:03:30.270Z,1.80
2019-01-06T11:05:56.252Z,1.97
2019-01-06T11:08:22.222Z,2.27
2019-01-06T11:10:48.214Z,1.13
2019-01-06T11:13:14.158Z,1.27
2019-01-06T11:15:40.139Z,1.30
2019-01-06T11:18:06.111Z,1.60
2019-01-06T11:20:32.095Z,1.50
2019-01-06T11:22:58.061Z,1.13
2019-01-06T11:25:24.809Z,1.10
2019-01-06T11:27:51.531Z,0.80
2019-01-06T11:30:17.502Z,1.03
2019-01-06T11:32:43.481Z,0.83
2019-01-06T11:35:09.436Z,0.73
2019-01-06T11:37:36.161Z,0.80
2019-01-06T11:40:02.869Z,0.77
2019-01-06T11:42:28.865Z,0.93
2019-01-06T11:44:54.843Z,0.80
2019-01-06T11:47:21.577Z,0.77
2019-01-06T11:49:47.518Z,0.70
2019-01-06T11:52:14.254Z,1.00
2019-01-06T11:54:40.955Z,0.70
2019-01-06T11:57:06.931Z,0.97
2019-01-06T11:59:32.888Z,1.03
2019-01-06T12:01:59.612Z,0.70
2019-01-06T12:04:25.595Z,0.80
2019-01-06T12:06:52.287Z,0.90
2019-01-06T12:09:18.247Z,0.90
2019-01-06T12:11:44.199Z,1.10
2019-01-06T12:14:10.912Z,1.10
2019-01-06T12:16:36.871Z,1.10
2019-01-06T12:19:02.858Z,1.20
2019-01-06T12:21:28.805Z,1.00
2019-01-06T12:23:54.799Z,1.20
2019-01-06T12:26:20.760Z,1.17
2019-01-06T12:28:46.751Z,1.20
2019-01-06T12:31:13.447Z,0.80
2019-01-06T12:33:39.428Z,0.60
2019-01-06T12:36:06.127Z,0.73
2019-01-06T12:38:32.085Z,0.70
2019-01-06T12:40:58.812Z,0.70
2019-01-06T12:43:24.784Z,0.60
2019-01-06T12:45:50.775Z,0.60
2019-01-06T12:48:17.485Z,0.60
2019-01-06T12:50:44.934Z,0.40
2019-01-06T12:53:11.650Z,0.43
2019-01-06T12:55:37.639Z,0.50
2019-01-06T12:58:03.665Z,0.40
2019-01-06T13:00:30.386Z,0.57
2019-01-06T13:02:57.101Z,0.77
2019-01-06T13:05:23.077Z,0.70
2019-01-06T13:07:49.098Z,0.47
2019-01-06T13:10:15.130Z,0.57
2019-01-06T13:12:41.111Z,0.77
2019-01-06T13:15:07.059Z,0.47
2019-01-06T13:17:33.793Z,0.70
2019-01-06T13:20:00.526Z,0.40
2019-01-06T13:22:26.504Z,0.50
2019-01-06T13:24:52.450Z,0.57
2019-01-06T13:27:18.439Z,0.30
2019-01-06T13:29:44.408Z,0.50
2019-01-06T13:32:10.416Z,0.60
2019-01-06T13:34:37.105Z,0.70
2019-01-06T13:37:03.050Z,0.60
2019-01-06T13:39:29.040Z,0.70
2019-01-06T13:41:55.724Z,0.97
2019-01-06T13:44:21.686Z,0.60
2019-01-06T13:46:48.387Z,0.90
2019-01-06T13:49:14.385Z,0.80
2019-01-06T13:51:40.355Z,0.80
2019-01-06T13:54:06.321Z,1.20
2019-01-06T13:56:32.276Z,0.97
2019-01-06T13:58:58.263Z,0.70
2019-01-06T14:01:24.208Z,0.77
2019-01-06T14:03:50.214Z,1.27
2019-01-06T14:06:16.162Z,0.80
2019-01-06T14:08:42.120Z,0.90
2019-01-06T14:11:08.102Z,1.17
2019-01-06T14:13:34.062Z,0.80
2019-01-06T14:16:00.034Z,0.97
2019-01-06T14:18:25.979Z,0.60
2019-01-06T14:20:51.960Z,0.67
2019-01-06T14:23:18.642Z,0.60
2019-01-06T14:25:44.629Z,0.63
2019-01-06T14:28:10.587Z,0.70
2019-01-06T14:30:36.585Z,0.53
2019-01-06T14:33:02.554Z,0.60
2019-01-06T14:35:28.521Z,0.50
2019-01-06T14:37:54.528Z,0.80
2019-01-06T14:40:20.493Z,0.80
2019-01-06T14:42:46.473Z,0.57
2019-01-06T14:45:13.165Z,0.53
2019-01-06T14:47:39.142Z,1.10
2019-01-06T14:50:05.107Z,0.90
2019-01-06T14:52:31.074Z,0.67
2019-01-06T14:54:57.756Z,0.60
2019-01-06T14:57:24.048Z,0.53
2019-01-06T14:59:50.732Z,0.63
2019-01-06T15:02:16.669Z,0.50
2019-01-06T15:04:42.681Z,0.67
2019-01-06T15:07:08.634Z,0.67
2019-01-06T15:09:34.609Z,0.63
2019-01-06T15:12:00.570Z,0.80
2019-01-06T15:14:26.566Z,0.93
2019-01-06T15:16:52.537Z,0.97
2019-01-06T15:19:19.247Z,0.57
2019-01-06T15:21:45.201Z,0.90
2019-01-06T15:24:11.910Z,0.73
2019-01-06T15:26:37.861Z,0.90
2019-01-06T15:29:04.581Z,0.80
2019-01-06T15:31:30.519Z,0.80
2019-01-06T15:33:56.486Z,0.90
2019-01-06T15:36:22.444Z,1.07
2019-01-06T15:38:48.419Z,1.13
2019-01-06T15:41:14.350Z,0.57
2019-01-06T15:43:40.359Z,0.90
2019-01-06T15:46:06.312Z,1.27
2019-01-06T15:48:32.257Z,1.23
2019-01-06T15:50:58.255Z,0.93
2019-01-06T15:53:24.192Z,1.03
2019-01-06T15:55:50.184Z,1.30
2019-01-06T15:58:16.134Z,0.90
2019-01-06T16:00:42.127Z,1.03
2019-01-06T16:03:08.059Z,1.20
2019-01-06T16:05:34.057Z,1.30
2019-01-06T16:07:59.999Z,1.27
2019-01-06T16:10:25.951Z,1.20
2019-01-06T16:12:51.923Z,1.63
2019-01-06T16:15:17.863Z,1.63
2019-01-06T16:17:43.843Z,1.53
2019-01-06T16:20:09.819Z,1.63
2019-01-06T16:22:35.815Z,1.33
2019-01-06T16:25:01.795Z,1.27
2019-01-06T16:27:27.767Z,1.90
2019-01-06T16:29:54.447Z,1.43
2019-01-06T16:32:20.438Z,1.67
2019-01-06T16:34:46.395Z,1.80
2019-01-06T16:37:12.336Z,1.40
2019-01-06T16:39:38.329Z,1.83
2019-01-06T16:42:04.296Z,2.17
2019-01-06T16:44:31.015Z,3.07
2019-01-06T16:46:56.974Z,1.70
2019-01-06T16:49:22.965Z,1.20
2019-01-06T16:51:48.920Z,1.70
2019-01-06T16:54:14.896Z,1.60
2019-01-06T16:56:40.832Z,2.03
2019-01-06T16:59:06.802Z,2.13
2019-01-06T17:01:32.753Z,2.00
2019-01-06T17:04:00.547Z,1.93
2019-01-06T17:06:25.516Z,2.17
2019-01-06T17:08:51.460Z,2.23
2019-01-06T17:11:17.439Z,2.00
2019-01-06T17:13:43.412Z,1.73
2019-01-06T17:16:09.395Z,2.07
2019-01-06T17:18:35.355Z,1.80
2019-01-06T17:21:01.600Z,2.17
2019-01-06T17:23:28.087Z,1.80
2019-01-06T17:25:54.066Z,1.87
2019-01-06T17:28:20.057Z,1.83
2019-01-06T17:30:46.783Z,2.00
2019-01-06T17:33:12.753Z,1.90
2019-01-06T17:35:38.738Z,2.57
2019-01-06T17:38:04.706Z,2.30
2019-01-06T17:40:30.664Z,2.10
2019-01-06T17:42:56.629Z,2.17
2019-01-06T17:45:23.328Z,1.83
2019-01-06T17:47:49.318Z,2.20
2019-01-06T17:50:15.276Z,1.90
2019-01-06T17:52:41.262Z,1.70
2019-01-06T17:55:07.232Z,1.90
2019-01-06T17:57:33.215Z,1.63
2019-01-06T17:59:59.159Z,1.97
2019-01-06T18:02:25.129Z,1.80
2019-01-06T18:04:51.825Z,1.70
2019-01-06T18:07:17.819Z,2.20
2019-01-06T18:09:43.788Z,2.27
2019-01-06T18:12:09.728Z,2.30
2019-01-06T18:14:36.464Z,1.83
2019-01-06T18:17:02.456Z,2.37
2019-01-06T18:19:28.435Z,2.00
2019-01-06T18:21:56.941Z,2.00
2019-01-06T18:24:21.914Z,2.03
2019-01-06T18:26:48.613Z,2.50
2019-01-06T18:29:14.592Z,1.97
2019-01-06T18:31:40.561Z,1.90
2019-01-06T18:34:06.497Z,2.20
2019-01-06T18:36:32.464Z,2.00
2019-01-06T18:38:58.482Z,1.90
2019-01-06T18:41:25.196Z,3.00
2019-01-06T18:43:51.899Z,2.13
2019-01-06T18:46:17.873Z,2.27
2019-01-06T18:48:44.563Z,3.20
2019-01-06T18:51:10.538Z,2.70
2019-01-06T18:53:36.483Z,2.13
2019-01-06T18:56:02.453Z,2.20
2019-01-06T18:58:29.127Z,2.37
2019-01-06T19:00:55.095Z,2.57
2019-01-06T19:03:21.082Z,2.50
2019-01-06T19:05:47.028Z,2.47
2019-01-06T19:08:13.003Z,2.40
2019-01-06T19:10:39.694Z,2.27
2019-01-06T19:13:05.673Z,2.00
2019-01-06T19:15:31.627Z,2.40
2019-01-06T19:17:57.641Z,2.57
2019-01-06T19:20:23.581Z,1.80
2019-01-06T19:22:49.812Z,2.30
2019-01-06T19:25:15.817Z,2.27
2019-01-06T19:27:41.780Z,1.87
2019-01-06T19:30:07.735Z,2.53
2019-01-06T19:32:33.681Z,2.37
2019-01-06T19:34:59.665Z,2.23
2019-01-06T19:37:26.444Z,2.07
2019-01-06T19:39:53.158Z,2.17
2019-01-06T19:42:19.843Z,3.10
2019-01-06T19:44:45.837Z,2.70
2019-01-06T19:47:11.851Z,2.70
2019-01-06T19:49:37.835Z,2.73
2019-01-06T19:52:03.793Z,3.03
2019-01-06T19:54:29.787Z,2.77
2019-01-06T19:56:55.740Z,3.50
2019-01-06T19:59:21.697Z,3.80
2019-01-06T20:01:47.712Z,3.10
2019-01-06T20:04:13.695Z,3.20
2019-01-06T20:06:40.418Z,3.50
2019-01-06T20:09:07.108Z,3.03
2019-01-06T20:11:33.089Z,2.93
2019-01-06T20:13:59.792Z,3.10
2019-01-06T20:16:25.802Z,3.13
2019-01-06T20:18:51.744Z,2.77
2019-01-06T20:21:17.753Z,2.67
2019-01-06T20:23:43.800Z,2.73
2019-01-06T20:26:09.897Z,2.10
2019-01-06T20:28:36.628Z,2.50
2019-01-06T20:31:02.627Z,2.73
2019-01-06T20:33:29.340Z,2.60
2019-01-06T20:35:56.075Z,2.70
2019-01-06T20:38:22.064Z,2.00
2019-01-06T20:40:48.011Z,2.40
2019-01-06T20:43:13.994Z,2.70
2019-01-06T20:45:39.942Z,2.60
2019-01-06T20:48:05.937Z,3.07
2019-01-06T20:50:31.879Z,3.00
2019-01-06T20:52:57.847Z,3.27
2019-01-06T20:55:24.571Z,3.10
2019-01-06T20:57:50.561Z,2.50
2019-01-06T21:00:16.513Z,3.27
2019-01-06T21:02:42.469Z,2.50
2019-01-06T21:05:09.196Z,2.87
2019-01-06T21:07:35.914Z,2.60
2019-01-06T21:10:01.907Z,2.53
2019-01-06T21:12:27.877Z,2.30
2019-01-06T21:14:53.852Z,2.67
2019-01-06T21:17:19.788Z,2.70
2019-01-06T21:19:45.776Z,2.43
2019-01-06T21:22:11.756Z,2.63
2019-01-06T21:24:37.736Z,2.30
2019-01-06T21:27:03.693Z,2.40
2019-01-06T21:29:29.662Z,2.70
2019-01-06T21:31:55.639Z,2.47
2019-01-06T21:34:21.607Z,2.43
2019-01-06T21:36:47.579Z,2.47
2019-01-06T21:39:13.539Z,2.40
2019-01-06T21:41:40.267Z,2.00
2019-01-06T21:44:06.965Z,3.00
2019-01-06T21:46:32.932Z,2.33
2019-01-06T21:48:59.636Z,2.47
2019-01-06T21:51:25.614Z,3.37
2019-01-06T21:53:51.602Z,2.40
2019-01-06T21:56:17.577Z,2.73
2019-01-06T21:58:43.722Z,2.70
2019-01-06T22:01:09.679Z,2.93
2019-01-06T22:03:35.758Z,2.67
2019-01-06T22:06:01.761Z,3.07
2019-01-06T22:08:27.783Z,2.93
2019-01-06T22:10:53.789Z,3.13
2019-01-06T22:13:20.518Z,2.70
2019-01-06T22:15:47.211Z,2.77
2019-01-06T22:18:13.302Z,2.60
2019-01-06T22:20:39.302Z,2.47
2019-01-06T22:23:06.040Z,2.83
2019-01-06T22:25:32.758Z,2.40
2019-01-06T22:27:58.934Z,2.50
2019-01-06T22:30:24.930Z,2.33
2019-01-06T22:32:51.645Z,2.33
2019-01-06T22:35:17.694Z,2.30
2019-01-06T22:37:43.697Z,2.60
2019-01-06T22:40:09.691Z,2.17
2019-01-06T22:42:35.672Z,2.40
2019-01-06T22:45:02.412Z,2.43
2019-01-06T22:47:29.126Z,3.07
2019-01-06T22:49:55.139Z,2.50
2019-01-06T22:52:21.114Z,2.60
2019-01-06T22:54:47.188Z,2.43
2019-01-06T22:57:13.936Z,2.60
2019-01-06T22:59:40.010Z,2.30
2019-01-06T23:02:05.992Z,2.70
2019-01-06T23:04:32.015Z,2.20
2019-01-06T23:06:57.982Z,3.13
2019-01-06T23:09:23.928Z,2.33
2019-01-06T23:11:49.915Z,2.47
2019-01-06T23:14:16.663Z,2.90
2019-01-06T23:16:42.671Z,2.20
2019-01-06T23:19:09.438Z,2.30
2019-01-06T23:21:35.399Z,2.00
2019-01-06T23:24:01.347Z,2.50
2019-01-06T23:26:28.070Z,2.50
2019-01-06T23:28:54.041Z,2.37
2019-01-06T23:31:20.068Z,2.40
2019-01-06T23:33:46.037Z,2.53
2019-01-06T23:36:11.990Z,2.23
2019-01-06T23:38:38.743Z,2.40
2019-01-06T23:41:04.741Z,2.30
2019-01-06T23:43:30.727Z,2.87
2019-01-06T23:45:56.791Z,2.67
2019-01-06T23:48:23.563Z,2.60
2019-01-06T23:50:49.523Z,2.50
2019-01-06T23:53:16.233Z,2.33
2019-01-06T23:55:42.195Z,2.73
2019-01-06T23:58:08.196Z,2.60
